Hovedside
METAR-TAF:

METAR-TAF

Lufthavner :

Krabi lufthavn

Krabi, Thailand

breddegrad: 08-06-03N, lengdegrad: 098-59-05E, høyde over havet: 25 m

Gjeldene værobservasjon

Denne rapporten ble laget for 31 minutter siden, klokken 03:00 UTC
Vind 4 kt fra Vest, skiftende mellom Vest-sørvest og Nordvest
Temperatur 30°C
Luftfuktighet 84%
Trykk 1008 hPa
Sikt 10 km eller mer
Få skyer i en høyde av 2500 ft

METAR: VTSG 220300Z 28004KT 240V320 9999 FEW025 30/27 Q1008 NOSIG

Tid: 10:31 (03:31 UTC)

Varsel

Denne rapporten ble laget for 4 timer og 31 minutter siden, klokken 23:00 UTC
Varsel gyldig fra 22. klokken 00 UTC til 22. klokken 24 UTC
Vind 6 kt fra Vest-sørvest
Sikt 10 km eller mer
Spredte skyer i en høyde av 3000 ft
Midlertidig
fra 22. klokken 04 UTC til 22. klokken 12 UTC
Få skyer i en høyde av 1800 ft, Bygeskyer.
Spredte skyer i en høyde av 2000 ft
Brutte skyer i en høyde av 10000 ft
torden, lett regn,

TAF: VTSG 212300Z 2200/2224 24006KT 9999 SCT030 TEMPO 2204/2212 -TSRA FEW018CB SCT020 BKN100

Værobservasjoner og værvarsel for over 4000 flyplasser (METAR- og TAF-rapporter).

Tilgjengelige stasjoner er representert av de røde og gule prikkene på kartet.

Hold musepekeren over prikken for å se navnet på stasjonen.

Klikk så for å se værobservasjoner og -varsler.

For å forandre kartet kan du klikke på den grønne knappen med svart kryss for å zoome inn, på den grønne knappen med strek for å zoome ut, eller på de grønne pilene for å se tilstøtende kart.


METAR-TAF: